sensor_id;sensor_type;location;lat;lon;timestamp;pressure;altitude;pressure_sealevel;temperature;humidity
41334;BME280;27078;46.428;6.256;2023-12-07T00:01:00;96732.84;;;2.24;71.46
41334;BME280;27078;46.428;6.256;2023-12-07T00:03:26;96733.56;;;2.19;71.28
41334;BME280;27078;46.428;6.256;2023-12-07T00:05:51;96740.31;;;2.28;71.34
41334;BME280;27078;46.428;6.256;2023-12-07T00:08:16;96740.41;;;2.33;70.73
41334;BME280;27078;46.428;6.256;2023-12-07T00:10:42;96737.16;;;2.36;70.76
41334;BME280;27078;46.428;6.256;2023-12-07T00:13:07;96730.50;;;2.32;70.91
41334;BME280;27078;46.428;6.256;2023-12-07T00:15:32;96726.59;;;2.28;70.76
41334;BME280;27078;46.428;6.256;2023-12-07T00:17:58;96727.75;;;2.32;69.89
41334;BME280;27078;46.428;6.256;2023-12-07T00:20:25;96731.59;;;2.31;70.37
41334;BME280;27078;46.428;6.256;2023-12-07T00:22:50;96734.31;;;2.31;70.69
41334;BME280;27078;46.428;6.256;2023-12-07T00:25:16;96744.63;;;2.41;70.38
41334;BME280;27078;46.428;6.256;2023-12-07T00:27:41;96737.81;;;2.44;70.13
41334;BME280;27078;46.428;6.256;2023-12-07T00:30:06;96747.19;;;2.48;70.11
41334;BME280;27078;46.428;6.256;2023-12-07T00:32:32;96747.25;;;2.53;69.70
41334;BME280;27078;46.428;6.256;2023-12-07T00:34:57;96736.88;;;2.55;69.36
41334;BME280;27078;46.428;6.256;2023-12-07T00:37:23;96741.09;;;2.63;70.30
41334;BME280;27078;46.428;6.256;2023-12-07T00:39:48;96743.09;;;2.67;69.86
41334;BME280;27078;46.428;6.256;2023-12-07T00:42:14;96743.16;;;2.72;69.89
41334;BME280;27078;46.428;6.256;2023-12-07T00:44:42;96743.94;;;2.68;69.75
41334;BME280;27078;46.428;6.256;2023-12-07T00:47:07;96746.72;;;2.73;70.24
41334;BME280;27078;46.428;6.256;2023-12-07T00:49:33;96753.63;;;2.75;69.81
41334;BME280;27078;46.428;6.256;2023-12-07T00:51:58;96744.75;;;2.68;69.79
41334;BME280;27078;46.428;6.256;2023-12-07T00:54:23;96738.13;;;2.64;69.48
41334;BME280;27078;46.428;6.256;2023-12-07T00:56:49;96748.09;;;2.70;69.14
41334;BME280;27078;46.428;6.256;2023-12-07T00:59:14;96751.38;;;2.72;69.37
41334;BME280;27078;46.428;6.256;2023-12-07T01:01:39;96756.22;;;2.65;69.23
41334;BME280;27078;46.428;6.256;2023-12-07T01:04:05;96748.50;;;2.62;70.22
41334;BME280;27078;46.428;6.256;2023-12-07T01:06:31;96753.91;;;2.57;70.30
41334;BME280;27078;46.428;6.256;2023-12-07T01:08:57;96740.44;;;2.55;70.00
41334;BME280;27078;46.428;6.256;2023-12-07T01:11:22;96746.19;;;2.54;70.01
41334;BME280;27078;46.428;6.256;2023-12-07T01:13:47;96745.88;;;2.50;70.03
41334;BME280;27078;46.428;6.256;2023-12-07T01:16:13;96746.75;;;2.56;70.20
41334;BME280;27078;46.428;6.256;2023-12-07T01:18:38;96739.94;;;2.58;69.47
41334;BME280;27078;46.428;6.256;2023-12-07T01:21:04;96750.41;;;2.62;68.76
41334;BME280;27078;46.428;6.256;2023-12-07T01:23:31;96750.81;;;2.70;69.14
41334;BME280;27078;46.428;6.256;2023-12-07T01:25:57;96753.03;;;2.73;69.09
41334;BME280;27078;46.428;6.256;2023-12-07T01:28:22;96761.78;;;2.70;69.74
41334;BME280;27078;46.428;6.256;2023-12-07T01:30:47;96761.03;;;2.75;69.20
41334;BME280;27078;46.428;6.256;2023-12-07T01:33:13;96767.41;;;2.80;69.15
41334;BME280;27078;46.428;6.256;2023-12-07T01:35:38;96772.13;;;2.85;68.92
41334;BME280;27078;46.428;6.256;2023-12-07T01:38:03;96778.94;;;2.82;68.16
41334;BME280;27078;46.428;6.256;2023-12-07T01:40:29;96769.47;;;2.73;68.74
41334;BME280;27078;46.428;6.256;2023-12-07T01:42:54;96772.81;;;2.75;69.26
41334;BME280;27078;46.428;6.256;2023-12-07T01:45:20;96783.88;;;2.80;68.75
41334;BME280;27078;46.428;6.256;2023-12-07T01:47:48;96780.97;;;2.70;69.03
41334;BME280;27078;46.428;6.256;2023-12-07T01:50:14;96778.13;;;2.65;69.24
41334;BME280;27078;46.428;6.256;2023-12-07T01:52:44;96772.06;;;2.63;69.54
41334;BME280;27078;46.428;6.256;2023-12-07T01:55:11;96771.50;;;2.61;69.05
41334;BME280;27078;46.428;6.256;2023-12-07T01:57:37;96777.81;;;2.62;70.16
41334;BME280;27078;46.428;6.256;2023-12-07T02:00:03;96777.56;;;2.63;69.75
41334;BME280;27078;46.428;6.256;2023-12-07T02:02:30;96779.38;;;2.74;69.76
41334;BME280;27078;46.428;6.256;2023-12-07T02:04:56;96780.09;;;2.87;68.95
41334;BME280;27078;46.428;6.256;2023-12-07T02:07:22;96782.41;;;2.95;69.06
41334;BME280;27078;46.428;6.256;2023-12-07T02:09:49;96781.09;;;2.97;69.19
41334;BME280;27078;46.428;6.256;2023-12-07T02:12:14;96767.06;;;2.94;68.97
41334;BME280;27078;46.428;6.256;2023-12-07T02:14:40;96778.09;;;2.99;69.42
41334;BME280;27078;46.428;6.256;2023-12-07T02:17:14;96777.00;;;3.00;68.92
41334;BME280;27078;46.428;6.256;2023-12-07T02:22:13;96774.88;;;3.07;69.05
41334;BME280;27078;46.428;6.256;2023-12-07T02:24:47;96772.75;;;3.09;68.90
41334;BME280;27078;46.428;6.256;2023-12-07T02:27:13;96781.56;;;3.11;68.03
41334;BME280;27078;46.428;6.256;2023-12-07T02:29:38;96782.63;;;3.10;68.50
41334;BME280;27078;46.428;6.256;2023-12-07T02:32:04;96778.22;;;3.09;68.14
41334;BME280;27078;46.428;6.256;2023-12-07T02:34:29;96780.72;;;3.11;68.03
41334;BME280;27078;46.428;6.256;2023-12-07T02:36:57;96775.44;;;3.04;68.60
41334;BME280;27078;46.428;6.256;2023-12-07T02:39:24;96772.69;;;3.04;68.71
41334;BME280;27078;46.428;6.256;2023-12-07T02:41:51;96764.78;;;3.07;67.55
41334;BME280;27078;46.428;6.256;2023-12-07T02:44:18;96766.34;;;3.03;68.04
41334;BME280;27078;46.428;6.256;2023-12-07T02:46:44;96771.00;;;3.03;67.98
41334;BME280;27078;46.428;6.256;2023-12-07T02:49:10;96780.91;;;3.04;67.87
41334;BME280;27078;46.428;6.256;2023-12-07T02:51:35;96778.25;;;2.92;67.92
41334;BME280;27078;46.428;6.256;2023-12-07T02:54:00;96783.75;;;2.92;68.25
41334;BME280;27078;46.428;6.256;2023-12-07T02:56:26;96784.59;;;2.76;68.63
41334;BME280;27078;46.428;6.256;2023-12-07T02:58:51;96785.28;;;2.66;69.48
41334;BME280;27078;46.428;6.256;2023-12-07T03:01:16;96789.59;;;2.62;69.32
41334;BME280;27078;46.428;6.256;2023-12-07T03:03:42;96778.78;;;2.72;68.70
41334;BME280;27078;46.428;6.256;2023-12-07T03:06:07;96780.66;;;2.67;69.05
41334;BME280;27078;46.428;6.256;2023-12-07T03:08:32;96790.09;;;2.59;69.74
41334;BME280;27078;46.428;6.256;2023-12-07T03:10:58;96783.41;;;2.50;70.84
41334;BME280;27078;46.428;6.256;2023-12-07T03:13:23;96772.19;;;2.51;71.31
41334;BME280;27078;46.428;6.256;2023-12-07T03:15:48;96771.69;;;2.54;70.68
41334;BME280;27078;46.428;6.256;2023-12-07T03:18:14;96775.75;;;2.52;70.88
41334;BME280;27078;46.428;6.256;2023-12-07T03:20:39;96773.50;;;2.49;70.92
41334;BME280;27078;46.428;6.256;2023-12-07T03:23:04;96770.59;;;2.55;70.97
41334;BME280;27078;46.428;6.256;2023-12-07T03:25:30;96766.53;;;2.58;71.48
41334;BME280;27078;46.428;6.256;2023-12-07T03:27:56;96763.63;;;2.65;70.42
41334;BME280;27078;46.428;6.256;2023-12-07T03:30:21;96749.72;;;2.71;70.41
41334;BME280;27078;46.428;6.256;2023-12-07T03:32:46;96755.22;;;2.71;70.39
41334;BME280;27078;46.428;6.256;2023-12-07T03:35:12;96760.53;;;2.78;70.07
41334;BME280;27078;46.428;6.256;2023-12-07T03:37:37;96761.63;;;2.77;69.92
41334;BME280;27078;46.428;6.256;2023-12-07T03:40:02;96756.44;;;2.80;69.74
41334;BME280;27078;46.428;6.256;2023-12-07T03:42:29;96754.84;;;2.84;69.61
41334;BME280;27078;46.428;6.256;2023-12-07T03:44:55;96746.63;;;2.84;70.31
41334;BME280;27078;46.428;6.256;2023-12-07T03:47:20;96753.84;;;2.91;70.55
41334;BME280;27078;46.428;6.256;2023-12-07T03:49:46;96749.50;;;2.95;69.55
41334;BME280;27078;46.428;6.256;2023-12-07T03:52:11;96746.69;;;2.90;69.60
41334;BME280;27078;46.428;6.256;2023-12-07T03:54:36;96753.25;;;2.89;69.81
41334;BME280;27078;46.428;6.256;2023-12-07T03:57:03;96759.00;;;2.87;69.63
41334;BME280;27078;46.428;6.256;2023-12-07T03:59:28;96758.69;;;2.83;69.24
41334;BME280;27078;46.428;6.256;2023-12-07T04:01:53;96767.31;;;2.75;69.45
41334;BME280;27078;46.428;6.256;2023-12-07T04:04:19;96776.56;;;2.69;69.75
41334;BME280;27078;46.428;6.256;2023-12-07T04:06:44;96781.22;;;2.69;69.06
41334;BME280;27078;46.428;6.256;2023-12-07T04:09:09;96775.22;;;2.72;69.89
41334;BME280;27078;46.428;6.256;2023-12-07T04:11:35;96775.63;;;2.80;69.63
41334;BME280;27078;46.428;6.256;2023-12-07T04:14:00;96770.53;;;2.89;68.97
41334;BME280;27078;46.428;6.256;2023-12-07T04:16:25;96770.44;;;3.01;68.73
41334;BME280;27078;46.428;6.256;2023-12-07T04:18:51;96767.69;;;3.01;67.70
41334;BME280;27078;46.428;6.256;2023-12-07T04:21:16;96764.97;;;3.01;68.00
41334;BME280;27078;46.428;6.256;2023-12-07T04:23:42;96759.53;;;3.06;68.14
41334;BME280;27078;46.428;6.256;2023-12-07T04:26:07;96759.47;;;3.01;66.82
41334;BME280;27078;46.428;6.256;2023-12-07T04:28:32;96767.63;;;2.96;66.62
41334;BME280;27078;46.428;6.256;2023-12-07T04:30:58;96770.47;;;2.84;67.46
41334;BME280;27078;46.428;6.256;2023-12-07T04:33:23;96772.97;;;2.69;67.35
41334;BME280;27078;46.428;6.256;2023-12-07T04:35:48;96773.81;;;2.69;68.04
41334;BME280;27078;46.428;6.256;2023-12-07T04:38:14;96775.50;;;2.70;68.71
41334;BME280;27078;46.428;6.256;2023-12-07T04:40:39;96768.19;;;2.59;68.37
41334;BME280;27078;46.428;6.256;2023-12-07T04:43:05;96773.59;;;2.54;70.00
41334;BME280;27078;46.428;6.256;2023-12-07T04:45:30;96769.94;;;2.48;70.24
41334;BME280;27078;46.428;6.256;2023-12-07T04:47:55;96778.81;;;2.39;69.23
41334;BME280;27078;46.428;6.256;2023-12-07T04:50:23;96781.00;;;2.36;68.40
41334;BME280;27078;46.428;6.256;2023-12-07T04:52:48;96774.81;;;2.29;69.02
41334;BME280;27078;46.428;6.256;2023-12-07T04:55:13;96780.13;;;2.19;71.11
41334;BME280;27078;46.428;6.256;2023-12-07T04:57:40;96776.97;;;2.10;69.93
41334;BME280;27078;46.428;6.256;2023-12-07T05:00:06;96776.97;;;2.10;70.57
41334;BME280;27078;46.428;6.256;2023-12-07T05:02:31;96773.81;;;2.02;70.15
41334;BME280;27078;46.428;6.256;2023-12-07T05:04:57;96776.03;;;1.88;69.55
41334;BME280;27078;46.428;6.256;2023-12-07T05:07:22;96779.69;;;1.65;70.55
41334;BME280;27078;46.428;6.256;2023-12-07T05:09:49;96780.59;;;1.82;70.18
41334;BME280;27078;46.428;6.256;2023-12-07T05:12:15;96765.00;;;1.83;70.19
41334;BME280;27078;46.428;6.256;2023-12-07T05:14:41;96761.81;;;1.74;70.19
41334;BME280;27078;46.428;6.256;2023-12-07T05:17:06;96772.78;;;1.46;70.72
41334;BME280;27078;46.428;6.256;2023-12-07T05:19:31;96786.13;;;1.30;72.05
41334;BME280;27078;46.428;6.256;2023-12-07T05:21:57;96792.97;;;1.16;72.40
41334;BME280;27078;46.428;6.256;2023-12-07T05:24:22;96802.81;;;1.17;73.36
41334;BME280;27078;46.428;6.256;2023-12-07T05:26:47;96801.50;;;1.20;72.50
41334;BME280;27078;46.428;6.256;2023-12-07T05:29:13;96804.00;;;1.21;73.03
41334;BME280;27078;46.428;6.256;2023-12-07T05:31:39;96794.88;;;1.15;73.82
41334;BME280;27078;46.428;6.256;2023-12-07T05:34:05;96780.84;;;1.12;73.71
41334;BME280;27078;46.428;6.256;2023-12-07T05:36:30;96778.13;;;1.00;73.84
41334;BME280;27078;46.428;6.256;2023-12-07T05:38:56;96785.75;;;0.98;73.86
41334;BME280;27078;46.428;6.256;2023-12-07T05:41:21;96787.63;;;0.98;74.41
41334;BME280;27078;46.428;6.256;2023-12-07T05:43:46;96790.63;;;0.96;73.95
41334;BME280;27078;46.428;6.256;2023-12-07T05:46:12;96790.88;;;0.94;74.60
41334;BME280;27078;46.428;6.256;2023-12-07T05:48:37;96790.13;;;0.87;74.32
41334;BME280;27078;46.428;6.256;2023-12-07T05:51:03;96791.81;;;0.88;74.49
41334;BME280;27078;46.428;6.256;2023-12-07T05:53:28;96792.66;;;0.89;74.41
41334;BME280;27078;46.428;6.256;2023-12-07T05:55:54;96788.13;;;0.83;74.13
41334;BME280;27078;46.428;6.256;2023-12-07T05:58:19;96779.97;;;0.71;74.23
41334;BME280;27078;46.428;6.256;2023-12-07T06:00:47;96782.69;;;0.71;74.67
41334;BME280;27078;46.428;6.256;2023-12-07T06:03:13;96779.72;;;0.61;74.78
41334;BME280;27078;46.428;6.256;2023-12-07T06:05:39;96786.03;;;0.61;74.23
41334;BME280;27078;46.428;6.256;2023-12-07T06:08:04;96781.25;;;0.57;74.43
41334;BME280;27078;46.428;6.256;2023-12-07T06:10:30;96779.72;;;0.61;74.13
41334;BME280;27078;46.428;6.256;2023-12-07T06:12:56;96785.06;;;0.56;74.72
41334;BME280;27078;46.428;6.256;2023-12-07T06:15:23;96787.09;;;0.49;74.83
41334;BME280;27078;46.428;6.256;2023-12-07T06:17:48;96786.34;;;0.53;74.90
41334;BME280;27078;46.428;6.256;2023-12-07T06:20:14;96792.44;;;0.55;74.75
41334;BME280;27078;46.428;6.256;2023-12-07T06:22:39;96793.50;;;0.54;75.45
41334;BME280;27078;46.428;6.256;2023-12-07T06:25:05;96788.97;;;0.60;74.30
41334;BME280;27078;46.428;6.256;2023-12-07T06:27:31;96796.81;;;0.68;74.74
41334;BME280;27078;46.428;6.256;2023-12-07T06:29:58;96804.56;;;0.71;74.12
41334;BME280;27078;46.428;6.256;2023-12-07T06:32:24;96807.03;;;0.73;72.73
41334;BME280;27078;46.428;6.256;2023-12-07T06:34:49;96807.03;;;0.61;72.65
41334;BME280;27078;46.428;6.256;2023-12-07T06:37:15;96810.13;;;0.53;72.91
41334;BME280;27078;46.428;6.256;2023-12-07T06:39:42;96796.00;;;0.44;72.83
41334;BME280;27078;46.428;6.256;2023-12-07T06:42:07;96796.94;;;0.38;73.10
41334;BME280;27078;46.428;6.256;2023-12-07T06:44:33;96805.81;;;0.33;72.68
41334;BME280;27078;46.428;6.256;2023-12-07T06:46:58;96814.16;;;0.38;72.98
41334;BME280;27078;46.428;6.256;2023-12-07T06:49:23;96825.44;;;0.42;72.52
41334;BME280;27078;46.428;6.256;2023-12-07T06:51:49;96815.59;;;0.41;72.38
41334;BME280;27078;46.428;6.256;2023-12-07T06:54:14;96819.13;;;0.41;72.38
41334;BME280;27078;46.428;6.256;2023-12-07T06:56:39;96809.88;;;0.42;72.25
41334;BME280;27078;46.428;6.256;2023-12-07T06:59:05;96806.06;;;0.43;72.23
41334;BME280;27078;46.428;6.256;2023-12-07T07:01:30;96817.47;;;0.40;72.02
41334;BME280;27078;46.428;6.256;2023-12-07T07:03:55;96807.13;;;0.42;71.92
41334;BME280;27078;46.428;6.256;2023-12-07T07:06:21;96808.22;;;0.41;72.56
41334;BME280;27078;46.428;6.256;2023-12-07T07:08:47;96800.38;;;0.45;72.22
41334;BME280;27078;46.428;6.256;2023-12-07T07:11:12;96789.81;;;0.49;71.72
41334;BME280;27078;46.428;6.256;2023-12-07T07:13:39;96797.53;;;0.52;71.73
41334;BME280;27078;46.428;6.256;2023-12-07T07:16:05;96795.38;;;0.54;71.83
41334;BME280;27078;46.428;6.256;2023-12-07T07:18:30;96796.00;;;0.56;71.65
41334;BME280;27078;46.428;6.256;2023-12-07T07:20:55;96805.25;;;0.55;71.69
41334;BME280;27078;46.428;6.256;2023-12-07T07:23:21;96806.19;;;0.60;71.24
41334;BME280;27078;46.428;6.256;2023-12-07T07:25:46;96810.97;;;0.65;70.89
41334;BME280;27078;46.428;6.256;2023-12-07T07:28:11;96810.50;;;0.68;70.70
41334;BME280;27078;46.428;6.256;2023-12-07T07:30:37;96811.31;;;0.68;70.52
41334;BME280;27078;46.428;6.256;2023-12-07T07:33:03;96804.31;;;0.73;70.84
41334;BME280;27078;46.428;6.256;2023-12-07T07:35:29;96807.16;;;0.78;70.87
41334;BME280;27078;46.428;6.256;2023-12-07T07:37:54;96813.56;;;0.83;70.81
41334;BME280;27078;46.428;6.256;2023-12-07T07:40:20;96813.69;;;0.88;70.40
41334;BME280;27078;46.428;6.256;2023-12-07T07:42:45;96812.72;;;0.94;70.29
41334;BME280;27078;46.428;6.256;2023-12-07T07:45:11;96809.50;;;0.98;70.27
41334;BME280;27078;46.428;6.256;2023-12-07T07:47:36;96804.53;;;0.94;70.46
41334;BME280;27078;46.428;6.256;2023-12-07T07:50:02;96794.19;;;0.97;70.54
41334;BME280;27078;46.428;6.256;2023-12-07T07:52:33;96792.63;;;1.01;70.93
41334;BME280;27078;46.428;6.256;2023-12-07T07:55:00;96792.75;;;1.06;70.50
41334;BME280;27078;46.428;6.256;2023-12-07T07:57:28;96799.13;;;1.11;70.58
41334;BME280;27078;46.428;6.256;2023-12-07T07:59:53;96784.50;;;1.17;70.92
41334;BME280;27078;46.428;6.256;2023-12-07T08:02:20;96781.06;;;1.22;70.64
41334;BME280;27078;46.428;6.256;2023-12-07T08:04:46;96774.13;;;1.31;70.78
41334;BME280;27078;46.428;6.256;2023-12-07T08:07:11;96772.31;;;1.37;70.79
41334;BME280;27078;46.428;6.256;2023-12-07T08:09:36;96757.69;;;1.43;70.74
41334;BME280;27078;46.428;6.256;2023-12-07T08:12:02;96760.50;;;1.48;69.90
41334;BME280;27078;46.428;6.256;2023-12-07T08:14:27;96765.16;;;1.48;70.39
41334;BME280;27078;46.428;6.256;2023-12-07T08:16:53;96768.00;;;1.53;70.15
41334;BME280;27078;46.428;6.256;2023-12-07T08:19:18;96774.03;;;1.55;71.27
41334;BME280;27078;46.428;6.256;2023-12-07T08:21:44;96767.38;;;1.62;71.58
41334;BME280;27078;46.428;6.256;2023-12-07T08:24:09;96753.88;;;1.73;72.56
41334;BME280;27078;46.428;6.256;2023-12-07T08:26:36;96752.31;;;1.77;71.47
41334;BME280;27078;46.428;6.256;2023-12-07T08:29:01;96753.31;;;1.87;73.37
41334;BME280;27078;46.428;6.256;2023-12-07T08:31:26;96749.44;;;2.00;72.61
41334;BME280;27078;46.428;6.256;2023-12-07T08:33:52;96735.50;;;2.19;72.33
41334;BME280;27078;46.428;6.256;2023-12-07T08:36:17;96740.56;;;2.27;71.37
41334;BME280;27078;46.428;6.256;2023-12-07T08:38:42;96726.34;;;2.47;72.75
41334;BME280;27078;46.428;6.256;2023-12-07T08:41:08;96716.91;;;2.76;71.78
41334;BME280;27078;46.428;6.256;2023-12-07T08:43:33;96711.75;;;3.02;70.68
41334;BME280;27078;46.428;6.256;2023-12-07T08:45:59;96707.03;;;3.19;70.73
41334;BME280;27078;46.428;6.256;2023-12-07T08:48:24;96710.47;;;3.31;68.64
41334;BME280;27078;46.428;6.256;2023-12-07T08:50:49;96714.16;;;3.42;68.59
41334;BME280;27078;46.428;6.256;2023-12-07T08:53:15;96702.50;;;3.57;68.31
41334;BME280;27078;46.428;6.256;2023-12-07T08:55:40;96706.44;;;3.61;67.55
41334;BME280;27078;46.428;6.256;2023-12-07T08:58:06;96714.91;;;3.60;65.29
41334;BME280;27078;46.428;6.256;2023-12-07T09:00:34;96714.97;;;3.65;63.75
41334;BME280;27078;46.428;6.256;2023-12-07T09:03:00;96721.06;;;3.72;62.81
41334;BME280;27078;46.428;6.256;2023-12-07T09:05:27;96715.59;;;3.72;64.69
41334;BME280;27078;46.428;6.256;2023-12-07T09:07:52;96712.06;;;3.76;64.13
41334;BME280;27078;46.428;6.256;2023-12-07T09:10:20;96715.69;;;3.82;63.72
41334;BME280;27078;46.428;6.256;2023-12-07T09:12:45;96709.16;;;3.88;65.95
41334;BME280;27078;46.428;6.256;2023-12-07T09:15:11;96703.97;;;3.92;64.15
41334;BME280;27078;46.428;6.256;2023-12-07T09:17:40;96705.13;;;4.01;62.51
41334;BME280;27078;46.428;6.256;2023-12-07T09:20:10;96710.56;;;4.23;62.11
41334;BME280;27078;46.428;6.256;2023-12-07T09:22:45;96707.75;;;4.55;63.08
41334;BME280;27078;46.428;6.256;2023-12-07T09:25:11;96719.19;;;4.79;61.67
41334;BME280;27078;46.428;6.256;2023-12-07T09:27:38;96722.50;;;4.81;59.17
41334;BME280;27078;46.428;6.256;2023-12-07T09:30:08;96716.13;;;4.70;59.01
41334;BME280;27078;46.428;6.256;2023-12-07T09:32:37;96704.47;;;4.58;62.75
41334;BME280;27078;46.428;6.256;2023-12-07T09:35:07;96697.25;;;4.47;61.55
41334;BME280;27078;46.428;6.256;2023-12-07T09:37:34;96695.50;;;4.31;61.33
41334;BME280;27078;46.428;6.256;2023-12-07T09:40:00;96701.72;;;4.21;63.15
41334;BME280;27078;46.428;6.256;2023-12-07T09:42:26;96692.09;;;4.18;62.11
41334;BME280;27078;46.428;6.256;2023-12-07T09:44:51;96700.81;;;4.10;62.03
41334;BME280;27078;46.428;6.256;2023-12-07T09:47:17;96697.03;;;4.16;63.40
41334;BME280;27078;46.428;6.256;2023-12-07T09:49:43;96698.00;;;4.32;62.71
41334;BME280;27078;46.428;6.256;2023-12-07T09:52:10;96691.50;;;4.48;65.29
41334;BME280;27078;46.428;6.256;2023-12-07T09:54:39;96698.44;;;4.56;62.84
41334;BME280;27078;46.428;6.256;2023-12-07T09:57:05;96686.44;;;4.72;63.35
41334;BME280;27078;46.428;6.256;2023-12-07T09:59:30;96684.09;;;5.02;64.80
41334;BME280;27078;46.428;6.256;2023-12-07T10:01:55;96689.94;;;5.15;62.71
41334;BME280;27078;46.428;6.256;2023-12-07T10:04:22;96689.69;;;5.22;61.63
41334;BME280;27078;46.428;6.256;2023-12-07T10:06:53;96686.38;;;5.15;61.22
41334;BME280;27078;46.428;6.256;2023-12-07T10:09:19;96690.75;;;5.11;61.71
41334;BME280;27078;46.428;6.256;2023-12-07T10:11:46;96692.97;;;5.14;62.52
41334;BME280;27078;46.428;6.256;2023-12-07T10:14:12;96695.44;;;5.15;63.92
41334;BME280;27078;46.428;6.256;2023-12-07T10:16:38;96686.66;;;5.13;62.54
41334;BME280;27078;46.428;6.256;2023-12-07T10:19:16;96689.16;;;5.20;62.70
41334;BME280;27078;46.428;6.256;2023-12-07T10:21:46;96685.63;;;5.40;61.98
41334;BME280;27078;46.428;6.256;2023-12-07T10:24:12;96672.41;;;5.37;61.06
41334;BME280;27078;46.428;6.256;2023-12-07T10:26:38;96674.06;;;5.38;62.13
41334;BME280;27078;46.428;6.256;2023-12-07T10:29:07;96681.22;;;5.39;62.16
41334;BME280;27078;46.428;6.256;2023-12-07T10:31:33;96671.03;;;5.34;61.80
41334;BME280;27078;46.428;6.256;2023-12-07T10:33:59;96674.28;;;5.26;63.28
41334;BME280;27078;46.428;6.256;2023-12-07T10:36:25;96671.25;;;5.22;62.62
41334;BME280;27078;46.428;6.256;2023-12-07T10:38:51;96675.72;;;5.39;63.96
41334;BME280;27078;46.428;6.256;2023-12-07T10:41:18;96667.47;;;5.44;62.04
41334;BME280;27078;46.428;6.256;2023-12-07T10:43:48;96673.81;;;5.50;63.58
41334;BME280;27078;46.428;6.256;2023-12-07T10:46:15;96668.88;;;5.52;62.57
41334;BME280;27078;46.428;6.256;2023-12-07T10:48:44;96655.13;;;5.62;62.40
41334;BME280;27078;46.428;6.256;2023-12-07T10:51:17;96657.03;;;5.51;62.01
41334;BME280;27078;46.428;6.256;2023-12-07T10:53:45;96657.56;;;5.53;62.86
41334;BME280;27078;46.428;6.256;2023-12-07T10:56:28;96651.25;;;5.53;62.61
41334;BME280;27078;46.428;6.256;2023-12-07T10:58:55;96646.56;;;5.48;61.58
41334;BME280;27078;46.428;6.256;2023-12-07T11:01:23;96656.44;;;5.39;62.59
41334;BME280;27078;46.428;6.256;2023-12-07T11:03:52;96656.94;;;5.26;62.01
41334;BME280;27078;46.428;6.256;2023-12-07T11:06:18;96658.34;;;5.23;62.01
41334;BME280;27078;46.428;6.256;2023-12-07T11:08:49;96656.38;;;5.18;62.40
41334;BME280;27078;46.428;6.256;2023-12-07T11:11:19;96653.09;;;5.16;62.58
41334;BME280;27078;46.428;6.256;2023-12-07T11:13:56;96657.44;;;5.12;62.65
41334;BME280;27078;46.428;6.256;2023-12-07T11:16:32;96660.19;;;5.07;64.15
41334;BME280;27078;46.428;6.256;2023-12-07T11:18:58;96653.34;;;5.10;61.88
41334;BME280;27078;46.428;6.256;2023-12-07T11:21:24;96644.81;;;5.11;62.68
41334;BME280;27078;46.428;6.256;2023-12-07T11:23:50;96649.75;;;5.14;62.15
41334;BME280;27078;46.428;6.256;2023-12-07T11:26:19;96645.94;;;5.20;63.05
41334;BME280;27078;46.428;6.256;2023-12-07T11:28:45;96640.47;;;5.31;63.70
41334;BME280;27078;46.428;6.256;2023-12-07T11:31:10;96636.31;;;5.28;62.30
41334;BME280;27078;46.428;6.256;2023-12-07T11:33:39;96632.19;;;5.20;62.15
41334;BME280;27078;46.428;6.256;2023-12-07T11:36:07;96623.34;;;5.18;63.11
41334;BME280;27078;46.428;6.256;2023-12-07T11:38:33;96626.66;;;5.10;63.12
41334;BME280;27078;46.428;6.256;2023-12-07T11:40:59;96631.00;;;5.01;62.91
41334;BME280;27078;46.428;6.256;2023-12-07T11:46:03;96627.09;;;4.87;62.73
41334;BME280;27078;46.428;6.256;2023-12-07T11:48:29;96623.78;;;4.80;62.88
41334;BME280;27078;46.428;6.256;2023-12-07T11:51:02;96603.34;;;4.60;62.19
41334;BME280;27078;46.428;6.256;2023-12-07T11:53:31;96611.53;;;4.50;63.41
41334;BME280;27078;46.428;6.256;2023-12-07T11:56:02;96610.94;;;4.43;63.01
41334;BME280;27078;46.428;6.256;2023-12-07T11:58:31;96614.47;;;4.38;63.27
41334;BME280;27078;46.428;6.256;2023-12-07T12:00:57;96610.13;;;4.42;64.03
41334;BME280;27078;46.428;6.256;2023-12-07T12:03:26;96595.03;;;4.50;65.46
41334;BME280;27078;46.428;6.256;2023-12-07T12:05:52;96592.28;;;4.55;63.28
41334;BME280;27078;46.428;6.256;2023-12-07T12:08:18;96595.03;;;4.55;63.24
41334;BME280;27078;46.428;6.256;2023-12-07T12:10:45;96595.63;;;4.57;64.17
41334;BME280;27078;46.428;6.256;2023-12-07T12:13:11;96587.09;;;4.59;62.50
41334;BME280;27078;46.428;6.256;2023-12-07T12:15:40;96588.84;;;4.80;64.40
41334;BME280;27078;46.428;6.256;2023-12-07T12:18:06;96569.63;;;4.95;63.11
41334;BME280;27078;46.428;6.256;2023-12-07T12:20:32;96572.44;;;5.11;64.09
41334;BME280;27078;46.428;6.256;2023-12-07T12:22:58;96571.09;;;5.13;62.54
41334;BME280;27078;46.428;6.256;2023-12-07T12:25:25;96566.13;;;5.20;61.63
41334;BME280;27078;46.428;6.256;2023-12-07T12:27:52;96565.31;;;5.35;60.63
41334;BME280;27078;46.428;6.256;2023-12-07T12:30:19;96566.16;;;5.36;61.24
41334;BME280;27078;46.428;6.256;2023-12-07T12:32:46;96565.06;;;5.37;62.53
41334;BME280;27078;46.428;6.256;2023-12-07T12:35:15;96544.16;;;5.41;60.26
41334;BME280;27078;46.428;6.256;2023-12-07T12:37:41;96546.06;;;5.56;62.19
41334;BME280;27078;46.428;6.256;2023-12-07T12:40:11;96539.47;;;5.41;58.53
41334;BME280;27078;46.428;6.256;2023-12-07T12:42:37;96550.44;;;5.21;58.64
41334;BME280;27078;46.428;6.256;2023-12-07T12:45:04;96544.41;;;5.29;60.83
41334;BME280;27078;46.428;6.256;2023-12-07T12:47:31;96546.34;;;5.39;59.79
41334;BME280;27078;46.428;6.256;2023-12-07T12:49:57;96549.13;;;5.54;61.27
41334;BME280;27078;46.428;6.256;2023-12-07T12:52:23;96542.25;;;5.67;61.29
41334;BME280;27078;46.428;6.256;2023-12-07T12:54:50;96548.56;;;5.78;63.16
41334;BME280;27078;46.428;6.256;2023-12-07T12:57:17;96537.53;;;5.73;59.88
41334;BME280;27078;46.428;6.256;2023-12-07T12:59:44;96532.31;;;5.56;60.56
41334;BME280;27078;46.428;6.256;2023-12-07T13:02:10;96522.13;;;5.46;60.81
41334;BME280;27078;46.428;6.256;2023-12-07T13:04:36;96518.53;;;5.45;60.30
41334;BME280;27078;46.428;6.256;2023-12-07T13:07:01;96517.16;;;5.38;59.84
41334;BME280;27078;46.428;6.256;2023-12-07T13:09:27;96515.81;;;5.40;61.68